Date,TemperatureHighF,TemperatureAvgF,TemperatureLowF,DewpointHighF,DewpointAvgF,DewpointLowF,HumidityHigh,HumidityAvg,HumidityLow,PressureMaxIn,PressureMinIn,WindSpeedMaxMPH,WindSpeedAvgMPH,GustSpeedMaxMPH,PrecipitationSumIn
2013-1-1,31.0,23.3,17.0,24.0,15.6,7.0,92,73,50,0.00,40.00,22,10,37,0.00
2013-1-2,27.0,21.4,9.0,19.0,10.6,4.0,84,64,42,0.00,40.00,30,16,43,0.00
2013-1-3,34.0,19.9,9.0,11.0,4.8,-1.0,80,53,35,0.00,40.00,14,9,19,0.00
2013-1-4,42.0,27.9,20.0,13.0,6.4,1.0,55,40,27,0.00,40.00,16,8,20,0.00
2013-1-5,37.0,27.0,20.0,18.0,11.8,8.0,61,53,42,0.00,40.00,12,6,20,0.00
2013-1-6,40.0,31.9,22.0,17.0,11.6,5.0,54,43,32,0.00,40.00,24,11,37,0.00
2013-1-7,39.0,30.1,22.0,18.0,13.5,8.0,59,50,35,0.00,40.00,12,7,17,0.00
2013-1-8,42.0,32.0,24.0,19.0,16.6,13.0,73,53,38,0.00,40.00,22,8,31,0.00
2013-1-9,48.0,40.0,25.0,24.0,19.1,13.0,60,43,33,0.00,40.00,35,19,54,0.00
2013-1-10,51.0,41.2,25.0,27.0,18.3,14.0,96,43,27,0.00,40.00,30,19,47,0.00
2013-1-11,25.0,9.5,2.0,24.0,3.2,-6.0,94,76,62,0.00,40.00,31,23,51,0.00
2013-1-12,11.0,5.1,2.0,2.0,-2.3,-6.0,76,71,65,0.00,40.00,27,9,47,0.00
2013-1-13,14.0,7.1,2.0,3.0,-1.5,-6.0,78,67,56,0.00,40.00,12,6,19,0.00
2013-1-14,16.0,8.1,2.0,-1.0,-5.9,-9.0,62,52,45,0.00,40.00,16,10,22,0.00
2013-1-15,36.0,24.3,9.0,27.0,14.1,-7.0,85,66,47,0.00,40.00,25,11,34,0.00
2013-1-16,42.0,34.1,27.0,20.0,16.4,14.0,64,49,36,0.00,40.00,18,7,26,0.00
2013-1-17,42.0,31.5,23.0,21.0,14.6,10.0,59,50,40,0.00,40.00,15,11,22,0.00
2013-1-18,49.0,39.0,31.0,23.0,14.6,10.0,45,37,27,0.00,40.00,14,9,21,0.00
2013-1-19,41.0,35.1,27.0,22.0,15.5,10.0,79,47,30,0.00,40.00,13,7,19,0.00
2013-1-20,32.0,22.8,18.0,18.0,13.6,11.0,83,68,43,0.00,40.00,22,9,32,0.00
2013-1-21,38.0,24.8,14.0,18.0,14.2,10.0,87,66,41,0.00,40.00,10,3,16,0.00
2013-1-22,46.0,35.0,28.0,14.0,9.4,5.0,54,36,22,0.00,40.00,7,4,15,0.00
2013-1-23,34.0,30.8,27.0,19.0,12.3,5.0,64,47,29,0.00,40.00,20,7,26,0.00
2013-1-24,49.0,38.5,27.0,22.0,17.2,13.0,69,43,26,0.00,40.00,20,7,25,0.00
2013-1-25,53.0,37.0,26.0,25.0,20.2,16.0,73,53,26,0.00,40.00,14,7,20,0.00
2013-1-26,55.0,39.9,29.0,27.0,21.5,19.0,68,50,27,0.00,40.00,15,7,22,0.00
2013-1-27,40.0,33.1,28.0,32.0,28.3,24.0,98,83,59,0.00,40.00,19,11,26,0.00
2013-1-28,30.0,26.3,19.0,27.0,24.0,16.0,98,91,75,0.00,40.00,9,6,14,0.00
2013-1-29,25.0,16.0,3.0,20.0,9.9,-3.0,89,77,65,0.00,40.00,25,11,38,0.00
2013-1-30,30.0,18.1,1.0,24.0,13.0,-4.0,94,80,68,0.00,40.00,23,10,34,0.00
2013-1-31,30.0,16.1,2.0,22.0,9.0,-4.0,77,73,58,0.00,40.00,10,6,16,0.00
2013-2-1,37.0,32.2,29.0,32.0,28.1,22.0,96,85,71,0.00,40.00,18,8,27,0.06
2013-2-2,39.0,31.6,24.0,28.0,20.7,17.0,84,65,47,0.00,40.00,16,7,30,0.01
2013-2-3,45.0,33.3,26.0,22.0,18.1,16.0,69,54,34,0.00,40.00,13,8,21,0.00
2013-2-4,46.0,35.3,26.0,21.0,17.8,15.0,66,50,33,0.00,40.00,13,5,22,0.00
2013-2-5,45.0,37.0,30.0,27.0,24.0,21.0,74,59,46,0.00,40.00,14,9,22,0.00
2013-2-6,41.0,34.8,31.0,24.0,20.7,18.0,66,57,43,0.00,40.00,15,6,21,0.00
2013-2-7,43.0,34.4,26.0,23.0,18.3,15.0,72,53,33,0.00,40.00,18,11,25,0.00
2013-2-8,42.0,34.1,26.0,21.0,16.8,13.0,72,50,34,0.00,40.00,16,6,25,0.00
2013-2-9,33.0,29.8,27.0,26.0,22.1,19.0,94,73,58,0.00,40.00,15,8,20,0.00
2013-2-10,27.0,23.1,15.0,26.0,16.1,8.0,94,75,51,0.00,40.00,27,19,44,0.00
2013-2-11,36.0,21.8,13.0,10.0,6.2,-2.0,79,55,22,0.00,40.00,12,7,16,0.00
2013-2-12,38.0,27.1,17.0,19.0,9.9,3.0,59,49,35,0.00,40.00,13,8,22,0.00
2013-2-13,41.0,31.8,27.0,32.0,20.9,11.0,99,67,39,0.00,40.00,34,12,54,0.00
2013-2-14,29.0,23.1,16.0,28.0,16.4,9.0,98,75,55,0.00,40.00,26,14,36,0.00
2013-2-15,33.0,25.6,19.0,21.0,18.8,9.0,93,76,53,0.00,40.00,9,5,17,0.01
2013-2-16,52.0,37.7,26.0,25.0,21.1,17.0,68,52,34,0.00,40.00,12,6,16,0.01
2013-2-17,36.0,32.6,28.0,30.0,22.2,17.0,91,66,47,0.00,40.00,27,16,40,0.01
2013-2-18,29.0,24.1,14.0,24.0,17.8,11.0,90,77,61,0.00,40.00,19,10,34,0.00
2013-2-19,33.0,23.8,12.0,20.0,14.9,8.0,87,69,57,0.00,40.00,36,24,49,0.00
2013-2-20,38.0,26.2,18.0,21.0,16.7,11.0,85,68,47,0.00,40.00,31,12,42,0.00
2013-2-21,27.0,22.6,17.0,19.0,17.1,14.0,88,79,64,0.00,40.00,11,6,15,0.00
2013-2-22,37.0,25.5,16.0,19.0,11.6,8.0,88,59,32,0.00,40.00,12,6,23,0.00
2013-2-23,42.0,31.1,24.0,31.0,18.3,8.0,100,62,38,0.00,40.00,22,11,33,0.00
2013-2-24,31.0,26.5,19.0,26.0,20.9,13.0,96,80,59,0.00,40.00,23,14,34,0.00
2013-2-25,40.0,27.9,16.0,20.0,14.5,7.0,77,58,40,0.00,40.00,13,10,19,0.00
2013-2-26,34.0,29.2,23.0,28.0,21.8,16.0,97,74,53,0.00,40.00,24,13,32,0.00
2013-2-27,40.0,27.9,18.0,20.0,15.9,12.0,93,64,33,0.00,40.00,7,4,12,0.00
2013-2-28,38.0,30.7,23.0,21.0,15.6,11.0,68,54,40,0.00,40.00,15,6,28,0.00
2013-3-1,49.0,35.3,25.0,31.0,23.9,17.0,73,64,48,0.00,40.00,10,5,15,0.00
2013-3-2,57.0,44.7,35.0,30.0,26.3,24.0,65,50,33,0.00,40.00,11,6,16,0.00
2013-3-3,57.0,40.3,28.0,32.0,27.6,21.0,93,64,30,0.00,40.00,41,8,63,0.00
2013-3-4,29.0,20.2,14.0,21.0,10.9,7.0,81,67,50,0.00,40.00,39,25,61,0.00
2013-3-5,36.0,21.7,7.0,18.0,10.2,2.0,81,62,41,0.00,40.00,20,8,28,0.00
2013-3-6,60.0,37.4,21.0,27.0,17.0,8.0,64,46,22,0.00,40.00,20,12,30,0.00
2013-3-7,48.0,38.2,31.0,27.0,21.8,18.0,73,53,32,0.00,40.00,15,6,21,0.00
2013-3-8,48.0,36.9,31.0,30.0,21.1,-99.9,85,63,49,0.00,40.00,20,10,29,0.00
2013-3-9,38.0,32.7,26.0,30.0,24.4,14.0,95,74,40,0.00,40.00,31,16,0,0.00
2013-3-10,48.0,35.6,21.0,22.0,17.6,15.0,83,51,29,0.00,40.00,11,6,0,0.00
2013-3-11,41.0,34.6,26.0,33.0,24.6,20.0,97,69,44,0.00,40.00,26,17,0,0.00
2013-3-12,42.0,31.8,21.0,23.0,17.4,13.0,93,59,31,0.00,40.00,22,9,0,0.00
2013-3-13,64.0,50.0,37.0,26.0,24.6,22.0,59,39,21,0.00,40.00,18,8,0,0.00
2013-3-14,66.0,53.2,41.0,29.0,25.7,22.0,60,37,20,0.00,40.00,16,6,0,0.00
2013-3-15,63.0,50.7,40.0,30.0,25.6,18.0,61,40,20,0.00,40.00,24,11,0,0.00
2013-3-16,48.0,40.0,33.0,35.0,30.6,26.0,96,70,42,0.00,40.00,22,9,0,0.01
2013-3-17,42.0,32.5,21.0,33.0,26.9,18.0,95,81,51,0.00,40.00,31,22,0,0.01
2013-3-18,36.0,26.5,16.0,19.0,14.5,8.0,92,64,32,0.00,40.00,18,10,0,0.00
2013-3-19,32.0,27.5,20.0,24.0,18.7,13.0,87,70,46,0.00,40.00,15,7,0,0.00
2013-3-20,56.0,36.5,20.0,21.0,15.1,10.0,79,48,16,0.00,40.00,29,15,0,0.00
2013-3-21,37.0,31.9,25.0,33.0,26.5,19.0,100,82,51,0.00,40.00,27,10,40,0.00
2013-3-22,32.0,25.3,20.0,26.0,21.6,18.0,99,86,68,0.00,40.00,18,8,27,0.00
2013-3-23,26.0,19.7,14.0,18.0,13.3,10.0,97,77,56,0.00,40.00,17,9,26,0.00
2013-3-24,20.0,15.5,9.0,13.0,11.0,7.0,95,83,70,0.00,40.00,22,10,29,0.00
2013-3-25,38.0,23.1,8.0,18.0,11.1,6.0,93,65,29,0.00,40.00,15,8,19,0.00
2013-3-26,50.0,36.4,23.0,19.0,13.6,8.0,71,44,18,0.00,40.00,15,6,19,0.00
2013-3-27,59.0,41.6,30.0,20.0,16.5,14.0,56,39,21,0.00,40.00,9,6,16,0.00
2013-3-28,62.0,55.4,43.0,24.0,21.6,20.0,45,28,21,0.00,40.00,10,5,14,0.00
2013-3-29,62.0,49.1,40.0,38.0,27.9,23.0,89,45,27,0.00,40.00,19,10,32,0.00
2013-3-30,51.0,43.9,35.0,39.0,31.5,21.0,93,66,31,0.00,40.00,29,10,45,0.00
2013-3-31,56.0,42.2,32.0,28.0,25.0,20.0,79,54,29,0.00,40.00,30,15,43,0.00
2013-4-1,54.0,39.9,28.0,28.0,21.3,11.0,87,54,20,0.00,40.00,11,7,21,0.00
2013-4-2,62.0,46.1,30.0,23.0,16.9,10.0,65,36,14,0.00,40.00,25,10,35,0.00
2013-4-3,63.0,50.6,39.0,32.0,24.2,13.0,71,37,22,0.00,40.00,25,14,35,0.00
2013-4-4,66.0,51.0,34.0,34.0,29.7,27.0,81,48,25,0.00,40.00,21,9,31,0.00
2013-4-5,68.0,51.4,41.0,43.0,32.1,25.0,96,53,25,0.00,40.00,32,11,48,0.36
2013-4-6,60.0,48.7,41.0,41.0,33.1,29.0,93,58,33,0.00,40.00,16,6,28,0.36
2013-4-7,59.0,47.4,38.0,41.0,36.4,27.0,94,69,30,0.00,40.00,17,7,36,0.01
2013-4-8,43.0,25.5,16.0,38.0,24.0,14.0,99,94,84,0.00,40.00,27,20,38,0.00
2013-4-9,19.0,14.9,11.0,14.0,10.3,7.0,93,82,61,0.00,40.00,20,14,33,0.00
2013-4-10,29.0,21.8,14.0,20.0,15.4,11.0,94,77,63,0.00,40.00,10,6,15,0.01
2013-4-11,45.0,34.2,20.0,38.0,27.6,15.0,100,77,63,0.00,40.00,23,9,34,0.01
2013-4-12,42.0,35.6,32.0,34.0,28.3,21.0,100,78,43,0.00,40.00,30,14,45,0.00
2013-4-13,58.0,40.8,32.0,36.0,30.0,26.0,100,71,29,0.00,40.00,38,18,52,0.11
2013-4-14,33.0,29.9,22.0,33.0,25.3,18.0,100,83,69,0.00,40.00,36,26,53,0.12
2013-4-15,29.0,23.4,17.0,23.0,18.1,16.0,95,81,60,0.00,40.00,14,10,23,0.00
2013-4-16,29.0,24.5,22.0,23.0,21.8,19.0,97,89,76,0.00,40.00,11,6,17,0.00
2013-4-17,28.0,24.2,21.0,22.0,20.9,19.0,96,87,72,0.00,40.00,17,11,26,0.00
2013-4-18,42.0,29.7,17.0,27.0,20.0,16.0,99,70,38,0.00,40.00,19,8,32,0.00
2013-4-19,50.0,41.4,33.0,34.0,28.5,25.0,87,62,37,0.00,40.00,15,6,23,0.00
2013-4-20,57.0,43.8,35.0,40.0,34.0,28.0,92,71,35,0.00,40.00,17,8,36,0.00
2013-4-21,44.0,36.3,30.0,39.0,33.9,30.0,100,91,79,0.00,40.00,15,8,22,0.00
2013-4-22,30.0,26.6,19.0,30.0,22.5,16.0,100,85,59,0.00,40.00,22,12,30,0.00
2013-4-23,39.0,27.9,14.0,21.0,16.9,12.0,97,66,43,0.00,40.00,11,6,19,0.02
2013-4-24,44.0,35.5,30.0,31.0,27.3,21.0,98,73,49,0.00,40.00,22,12,32,0.01
2013-4-25,64.0,51.6,37.0,27.0,20.7,14.0,67,33,15,0.00,40.00,17,9,27,0.00
2013-4-26,72.0,56.4,41.0,29.0,24.8,21.0,55,32,16,0.00,40.00,7,4,18,0.00
2013-4-27,78.0,61.8,46.0,34.0,26.8,22.0,52,30,13,0.00,40.00,13,6,24,0.00
2013-4-28,59.0,52.7,43.0,42.0,35.6,27.0,87,55,32,0.00,40.00,19,10,29,0.00
2013-4-29,68.0,53.3,40.0,41.0,36.7,29.0,93,59,26,0.00,40.00,28,14,43,0.07
2013-4-30,45.0,40.1,32.0,38.0,25.7,19.0,93,58,38,0.00,40.00,22,12,36,0.10
2013-5-1,49.0,36.4,27.0,25.0,19.0,10.0,84,54,24,0.00,40.00,12,5,21,0.00
2013-5-2,57.0,44.4,31.0,24.0,16.7,12.0,66,36,17,0.00,40.00,10,5,22,0.00
2013-5-3,69.0,52.5,37.0,28.0,20.1,15.0,48,31,14,0.00,40.00,19,9,32,0.00
2013-5-4,62.0,51.8,44.0,34.0,26.0,22.0,52,38,25,0.00,40.00,14,7,22,0.00
2013-5-5,66.0,52.6,38.0,27.0,23.5,21.0,54,34,19,0.00,40.00,10,5,16,0.00
2013-5-6,71.0,57.4,41.0,29.0,25.2,22.0,56,32,16,0.00,40.00,12,8,24,0.00
2013-5-7,76.0,62.0,48.0,34.0,28.6,23.0,50,31,14,0.00,40.00,18,9,23,0.00
2013-5-8,70.0,59.5,50.0,39.0,34.3,32.0,56,40,25,0.00,40.00,18,10,29,0.00
2013-5-9,70.0,58.5,46.0,45.0,38.5,33.0,74,50,27,0.00,40.00,18,8,24,0.00
2013-5-10,71.0,58.3,47.0,44.0,35.3,-99.9,84,48,21,0.00,40.00,28,11,60,0.01
2013-5-11,70.0,56.8,34.0,31.0,27.0,22.0,75,35,19,0.00,40.00,10,4,19,0.01
2013-5-12,79.0,67.2,51.0,39.0,34.4,31.0,53,32,18,0.00,40.00,17,8,32,0.00
2013-5-13,89.0,75.0,60.0,42.0,34.4,25.0,43,25,11,0.00,40.00,12,6,29,0.00
2013-5-14,79.0,68.8,58.0,49.0,40.2,29.0,61,37,22,0.00,40.00,17,9,28,0.00
2013-5-15,78.0,64.0,48.0,46.0,37.7,31.0,65,40,22,0.00,40.00,21,8,32,0.00
2013-5-16,74.0,56.1,51.0,55.0,26.5,-99.9,98,63,32,0.00,40.00,25,9,41,0.16
2013-5-17,72.0,58.8,52.0,56.0,47.3,-99.9,100,82,51,0.00,40.00,27,7,169,0.17
2013-5-18,70.0,55.5,51.0,54.0,51.4,49.0,100,87,55,0.00,40.00,16,8,23,0.01
2013-5-19,55.0,51.8,49.0,51.0,49.0,46.0,96,90,80,0.00,40.00,21,15,31,0.09
2013-5-20,50.0,46.3,44.0,47.0,44.4,42.0,98,93,86,0.00,40.00,35,27,57,0.26
2013-5-21,57.0,50.1,45.0,45.0,41.1,35.0,98,72,50,0.00,40.00,23,15,32,0.05
2013-5-22,61.0,51.4,42.0,48.0,44.6,41.0,95,78,61,0.00,40.00,24,9,38,0.00
2013-5-23,70.0,58.6,50.0,52.0,47.6,45.0,86,68,48,0.00,40.00,44,35,68,0.00
2013-5-24,84.0,71.4,59.0,68.0,55.6,50.0,82,60,31,0.00,40.00,42,16,62,0.00
2013-5-25,91.0,78.7,65.0,70.0,53.9,27.0,89,53,10,0.00,40.00,19,11,30,0.00
2013-5-26,80.0,71.0,59.0,74.0,62.4,49.0,100,77,36,0.00,40.00,19,10,46,1.44
2013-5-27,69.0,61.8,56.0,62.0,52.7,49.0,97,73,51,0.00,40.00,25,10,42,1.05
2013-5-28,84.0,73.3,64.0,67.0,57.2,45.0,91,61,28,0.00,40.00,17,9,34,0.09
2013-5-29,75.0,69.9,66.0,70.0,67.3,64.0,100,92,71,0.00,40.00,16,6,26,0.39
2013-5-30,76.0,71.2,66.0,75.0,69.9,65.0,100,96,93,0.00,40.00,36,26,56,1.60
2013-5-31,78.0,75.4,72.0,75.0,71.4,66.0,98,88,77,0.00,40.00,42,33,63,0.39
2013-6-1,83.0,75.8,66.0,73.0,64.7,57.0,98,72,44,0.00,40.00,27,14,47,0.11
2013-6-2,91.0,81.3,72.0,68.0,65.3,61.0,78,60,40,0.00,40.00,22,14,32,0.00
2013-7-29,73.0,68.8,65.0,50.0,49.6,48.0,58,51,41,0.00,40.00,12,7,19,0.00
2013-7-30,81.0,69.0,60.0,54.0,49.9,41.0,76,54,27,0.00,40.00,16,11,39,0.00
2013-7-31,85.0,78.2,66.0,53.0,45.6,38.0,64,33,19,0.00,40.00,11,8,20,0.01
2013-8-1,88.0,75.3,60.0,57.0,48.2,41.0,79,42,19,0.00,40.00,19,10,27,0.05
2013-8-2,70.0,61.9,56.0,59.0,54.5,52.0,86,77,58,0.00,40.00,21,11,29,0.05
2013-8-5,81.0,71.5,64.0,56.0,50.2,45.0,62,48,35,0.00,40.00,8,6,28,0.04
2013-8-21,87.0,76.7,68.0,51.0,45.3,41.0,48,34,22,0.00,40.00,16,8,23,0.00
2013-8-22,88.0,74.3,62.0,59.0,52.7,49.0,80,49,29,0.00,40.00,25,12,35,0.08
2013-8-23,93.0,78.8,66.0,58.0,50.6,41.0,76,42,17,0.00,40.00,19,10,39,0.01
2013-8-24,84.0,75.1,62.0,56.0,52.1,47.0,79,48,29,0.00,40.00,17,8,26,0.01
2013-8-25,91.0,75.6,61.0,57.0,49.1,40.0,75,45,18,0.00,40.00,20,7,31,0.00
2013-8-26,91.0,80.4,70.0,47.0,44.3,39.0,43,29,17,0.00,40.00,21,10,31,0.00
2013-8-27,85.0,75.4,68.0,48.0,45.7,44.0,48,36,25,0.00,40.00,11,6,16,0.00
2013-9-24,77.0,61.7,47.0,35.0,27.7,18.0,57,33,11,0.00,40.00,21,13,33,0.01
2013-9-25,65.0,55.9,44.0,47.0,37.0,27.0,100,53,24,0.00,40.00,19,12,31,0.05
2013-9-26,52.0,45.3,32.0,46.0,39.8,32.0,100,83,55,0.00,40.00,20,10,27,0.25
2013-9-27,39.0,34.7,32.0,37.0,34.3,32.0,100,99,93,0.00,40.00,11,5,21,0.48
2013-9-28,64.0,46.7,33.0,38.0,32.7,29.0,99,63,28,0.00,40.00,17,10,27,0.01
2013-9-29,68.0,58.3,49.0,38.0,34.2,29.0,62,42,24,0.00,40.00,23,14,40,0.01
2013-9-30,76.0,59.4,47.0,44.0,36.2,31.0,67,44,20,0.00,40.00,32,14,48,0.00
2013-12-26,43.0,35.8,30.0,26.0,20.4,14.0,63,53,41,0.00,40.00,15,8,19,0.00
2013-12-27,49.0,40.4,35.0,30.0,25.6,22.0,64,56,47,0.00,40.00,17,12,25,0.00
2013-12-28,41.0,22.5,3.0,29.0,14.1,1.0,94,73,46,0.00,40.00,26,13,37,0.00
2013-12-29,33.0,20.8,4.0,21.0,12.3,1.0,88,70,53,0.00,40.00,14,7,21,0.00
2013-12-30,39.0,32.2,26.0,30.0,24.3,18.0,97,73,51,0.00,40.00,30,12,43,0.00
2013-12-31,45.0,35.9,31.0,33.0,24.7,18.0,100,65,49,0.00,40.00,14,8,21,0.00
2014-1-1,31.0,26.8,19.0,31.0,25.6,17.0,100,95,83,0.00,40.00,17,8,25,0.00